sensor_id;sensor_type;location;lat;lon;timestamp;temperature;humidity
72380;SHT30;60354;47.798;12.472;2024-02-14T00:01:48;3.62;78.37
72380;SHT30;60354;47.798;12.472;2024-02-14T00:04:14;3.69;78.39
72380;SHT30;60354;47.798;12.472;2024-02-14T00:06:39;3.63;78.50
72380;SHT30;60354;47.798;12.472;2024-02-14T00:09:05;3.66;78.09
72380;SHT30;60354;47.798;12.472;2024-02-14T00:11:32;3.66;78.23
72380;SHT30;60354;47.798;12.472;2024-02-14T00:13:58;3.64;78.02
72380;SHT30;60354;47.798;12.472;2024-02-14T00:16:25;3.64;78.23
72380;SHT30;60354;47.798;12.472;2024-02-14T00:18:50;3.66;77.96
72380;SHT30;60354;47.798;12.472;2024-02-14T00:21:16;3.71;77.71
72380;SHT30;60354;47.798;12.472;2024-02-14T00:23:42;3.69;77.78
72380;SHT30;60354;47.798;12.472;2024-02-14T00:26:07;3.69;77.67
72380;SHT30;60354;47.798;12.472;2024-02-14T00:28:32;3.69;77.60
72380;SHT30;60354;47.798;12.472;2024-02-14T00:30:58;3.62;77.79
72380;SHT30;60354;47.798;12.472;2024-02-14T00:33:23;3.66;77.61
72380;SHT30;60354;47.798;12.472;2024-02-14T00:35:49;3.69;77.62
72380;SHT30;60354;47.798;12.472;2024-02-14T00:38:14;3.71;78.18
72380;SHT30;60354;47.798;12.472;2024-02-14T00:40:40;3.70;77.74
72380;SHT30;60354;47.798;12.472;2024-02-14T00:43:05;3.76;77.27
72380;SHT30;60354;47.798;12.472;2024-02-14T00:45:31;3.80;77.20
72380;SHT30;60354;47.798;12.472;2024-02-14T00:47:56;3.79;77.71
72380;SHT30;60354;47.798;12.472;2024-02-14T00:50:22;3.80;76.64
72380;SHT30;60354;47.798;12.472;2024-02-14T00:52:47;3.86;76.32
72380;SHT30;60354;47.798;12.472;2024-02-14T00:55:13;3.83;76.83
72380;SHT30;60354;47.798;12.472;2024-02-14T00:57:38;3.80;76.54
72380;SHT30;60354;47.798;12.472;2024-02-14T01:00:04;3.80;76.16
72380;SHT30;60354;47.798;12.472;2024-02-14T01:02:32;3.95;75.18
72380;SHT30;60354;47.798;12.472;2024-02-14T01:04:57;3.95;75.36
72380;SHT30;60354;47.798;12.472;2024-02-14T01:07:23;3.94;75.45
72380;SHT30;60354;47.798;12.472;2024-02-14T01:09:49;3.95;74.89
72380;SHT30;60354;47.798;12.472;2024-02-14T01:12:15;4.01;74.81
72380;SHT30;60354;47.798;12.472;2024-02-14T01:14:41;3.95;75.85
72380;SHT30;60354;47.798;12.472;2024-02-14T01:17:07;3.91;76.20
72380;SHT30;60354;47.798;12.472;2024-02-14T01:19:33;3.91;76.92
72380;SHT30;60354;47.798;12.472;2024-02-14T01:21:59;3.83;77.04
72380;SHT30;60354;47.798;12.472;2024-02-14T01:24:24;3.74;77.23
72380;SHT30;60354;47.798;12.472;2024-02-14T01:26:52;3.69;77.28
72380;SHT30;60354;47.798;12.472;2024-02-14T01:29:19;3.66;77.33
72380;SHT30;60354;47.798;12.472;2024-02-14T01:31:44;3.64;77.18
72380;SHT30;60354;47.798;12.472;2024-02-14T01:34:10;3.59;77.23
72380;SHT30;60354;47.798;12.472;2024-02-14T01:36:35;3.60;77.24
72380;SHT30;60354;47.798;12.472;2024-02-14T01:39:01;3.64;77.28
72380;SHT30;60354;47.798;12.472;2024-02-14T01:41:26;3.70;77.12
72380;SHT30;60354;47.798;12.472;2024-02-14T01:43:51;3.66;77.34
72380;SHT30;60354;47.798;12.472;2024-02-14T01:46:17;3.62;77.68
72380;SHT30;60354;47.798;12.472;2024-02-14T01:48:43;3.63;77.58
72380;SHT30;60354;47.798;12.472;2024-02-14T01:51:11;3.59;77.39
72380;SHT30;60354;47.798;12.472;2024-02-14T01:53:37;3.63;76.81
72380;SHT30;60354;47.798;12.472;2024-02-14T01:56:04;3.63;77.07
72380;SHT30;60354;47.798;12.472;2024-02-14T01:58:32;3.64;76.67
72380;SHT30;60354;47.798;12.472;2024-02-14T02:00:59;3.62;76.97
72380;SHT30;60354;47.798;12.472;2024-02-14T02:03:25;3.63;76.77
72380;SHT30;60354;47.798;12.472;2024-02-14T02:05:51;3.64;76.83
72380;SHT30;60354;47.798;12.472;2024-02-14T02:08:17;3.69;76.44
72380;SHT30;60354;47.798;12.472;2024-02-14T02:10:43;3.70;76.41
72380;SHT30;60354;47.798;12.472;2024-02-14T02:13:09;3.73;76.65
72380;SHT30;60354;47.798;12.472;2024-02-14T02:15:35;3.71;76.40
72380;SHT30;60354;47.798;12.472;2024-02-14T02:18:02;3.71;76.12
72380;SHT30;60354;47.798;12.472;2024-02-14T02:20:30;3.73;76.36
72380;SHT30;60354;47.798;12.472;2024-02-14T02:22:57;3.74;76.23
72380;SHT30;60354;47.798;12.472;2024-02-14T02:25:23;3.76;76.31
72380;SHT30;60354;47.798;12.472;2024-02-14T02:27:51;3.83;75.90
72380;SHT30;60354;47.798;12.472;2024-02-14T02:30:16;3.80;75.90
72380;SHT30;60354;47.798;12.472;2024-02-14T02:32:42;3.80;75.72
72380;SHT30;60354;47.798;12.472;2024-02-14T02:35:08;3.81;75.55
72380;SHT30;60354;47.798;12.472;2024-02-14T02:37:35;3.83;75.69
72380;SHT30;60354;47.798;12.472;2024-02-14T02:40:00;3.86;75.25
72380;SHT30;60354;47.798;12.472;2024-02-14T02:42:26;3.90;75.35
72380;SHT30;60354;47.798;12.472;2024-02-14T02:44:52;3.90;75.52
72380;SHT30;60354;47.798;12.472;2024-02-14T02:47:18;3.88;75.41
72380;SHT30;60354;47.798;12.472;2024-02-14T02:49:44;3.91;75.41
72380;SHT30;60354;47.798;12.472;2024-02-14T02:52:13;3.94;75.24
72380;SHT30;60354;47.798;12.472;2024-02-14T02:54:38;3.93;74.95
72380;SHT30;60354;47.798;12.472;2024-02-14T02:57:12;3.94;75.29
72380;SHT30;60354;47.798;12.472;2024-02-14T02:59:38;3.94;74.80
72380;SHT30;60354;47.798;12.472;2024-02-14T03:02:08;3.91;75.00
72380;SHT30;60354;47.798;12.472;2024-02-14T03:04:33;3.94;74.83
72380;SHT30;60354;47.798;12.472;2024-02-14T03:06:59;3.95;74.86
72380;SHT30;60354;47.798;12.472;2024-02-14T03:09:24;3.98;74.47
72380;SHT30;60354;47.798;12.472;2024-02-14T03:11:51;4.00;74.46
72380;SHT30;60354;47.798;12.472;2024-02-14T03:14:17;4.00;74.44
72380;SHT30;60354;47.798;12.472;2024-02-14T03:16:42;4.05;73.98
72380;SHT30;60354;47.798;12.472;2024-02-14T03:19:08;4.05;73.98
72380;SHT30;60354;47.798;12.472;2024-02-14T03:21:33;4.05;74.13
72380;SHT30;60354;47.798;12.472;2024-02-14T03:24:03;4.04;74.20
72380;SHT30;60354;47.798;12.472;2024-02-14T03:26:31;4.00;74.34
72380;SHT30;60354;47.798;12.472;2024-02-14T03:28:59;4.01;74.43
72380;SHT30;60354;47.798;12.472;2024-02-14T03:31:25;4.07;73.81
72380;SHT30;60354;47.798;12.472;2024-02-14T03:33:51;4.02;73.97
72380;SHT30;60354;47.798;12.472;2024-02-14T03:36:17;4.04;74.05
72380;SHT30;60354;47.798;12.472;2024-02-14T03:38:43;4.07;73.88
72380;SHT30;60354;47.798;12.472;2024-02-14T03:41:09;4.07;73.93
72380;SHT30;60354;47.798;12.472;2024-02-14T03:43:34;4.08;73.96
72380;SHT30;60354;47.798;12.472;2024-02-14T03:46:00;4.10;73.25
72380;SHT30;60354;47.798;12.472;2024-02-14T03:48:25;4.21;72.59
72380;SHT30;60354;47.798;12.472;2024-02-14T03:50:51;4.29;72.04
72380;SHT30;60354;47.798;12.472;2024-02-14T03:53:17;4.31;72.13
72380;SHT30;60354;47.798;12.472;2024-02-14T03:55:42;4.35;72.01
72380;SHT30;60354;47.798;12.472;2024-02-14T03:58:08;4.29;72.31
72380;SHT30;60354;47.798;12.472;2024-02-14T04:00:34;4.25;72.22
72380;SHT30;60354;47.798;12.472;2024-02-14T04:03:01;4.25;72.50
72380;SHT30;60354;47.798;12.472;2024-02-14T04:05:28;4.15;72.57
72380;SHT30;60354;47.798;12.472;2024-02-14T04:07:55;4.17;72.58
72380;SHT30;60354;47.798;12.472;2024-02-14T04:10:21;4.12;72.81
72380;SHT30;60354;47.798;12.472;2024-02-14T04:12:47;4.10;73.23
72380;SHT30;60354;47.798;12.472;2024-02-14T04:15:12;4.05;73.10
72380;SHT30;60354;47.798;12.472;2024-02-14T04:17:41;4.05;72.83
72380;SHT30;60354;47.798;12.472;2024-02-14T04:20:07;4.07;73.12
72380;SHT30;60354;47.798;12.472;2024-02-14T04:22:33;3.98;73.09
72380;SHT30;60354;47.798;12.472;2024-02-14T04:24:58;3.94;73.42
72380;SHT30;60354;47.798;12.472;2024-02-14T04:27:24;3.97;73.08
72380;SHT30;60354;47.798;12.472;2024-02-14T04:29:50;3.95;73.17
72380;SHT30;60354;47.798;12.472;2024-02-14T04:32:15;3.94;72.91
72380;SHT30;60354;47.798;12.472;2024-02-14T04:34:41;3.94;72.98
72380;SHT30;60354;47.798;12.472;2024-02-14T04:37:08;3.97;72.68
72380;SHT30;60354;47.798;12.472;2024-02-14T04:39:38;4.01;73.05
72380;SHT30;60354;47.798;12.472;2024-02-14T04:42:03;3.88;73.41
72380;SHT30;60354;47.798;12.472;2024-02-14T04:44:30;3.83;73.71
72380;SHT30;60354;47.798;12.472;2024-02-14T04:46:57;3.77;73.90
72380;SHT30;60354;47.798;12.472;2024-02-14T04:49:24;3.67;74.27
72380;SHT30;60354;47.798;12.472;2024-02-14T04:51:51;3.66;73.98
72380;SHT30;60354;47.798;12.472;2024-02-14T04:54:16;3.70;74.04
72380;SHT30;60354;47.798;12.472;2024-02-14T04:56:42;3.63;74.15
72380;SHT30;60354;47.798;12.472;2024-02-14T04:59:08;3.66;73.85
72380;SHT30;60354;47.798;12.472;2024-02-14T05:01:34;3.66;73.75
72380;SHT30;60354;47.798;12.472;2024-02-14T05:04:00;3.69;73.81
72380;SHT30;60354;47.798;12.472;2024-02-14T05:06:25;3.67;73.63
72380;SHT30;60354;47.798;12.472;2024-02-14T05:08:51;3.63;73.90
72380;SHT30;60354;47.798;12.472;2024-02-14T05:11:19;3.63;73.51
72380;SHT30;60354;47.798;12.472;2024-02-14T05:13:45;3.56;74.15
72380;SHT30;60354;47.798;12.472;2024-02-14T05:16:12;3.57;74.27
72380;SHT30;60354;47.798;12.472;2024-02-14T05:18:37;3.55;73.98
72380;SHT30;60354;47.798;12.472;2024-02-14T05:21:07;3.49;74.35
72380;SHT30;60354;47.798;12.472;2024-02-14T05:23:33;3.60;73.18
72380;SHT30;60354;47.798;12.472;2024-02-14T05:26:00;3.62;73.16
72380;SHT30;60354;47.798;12.472;2024-02-14T05:28:27;3.60;73.56
72380;SHT30;60354;47.798;12.472;2024-02-14T05:30:53;3.57;73.59
72380;SHT30;60354;47.798;12.472;2024-02-14T05:33:19;3.52;73.83
72380;SHT30;60354;47.798;12.472;2024-02-14T05:35:48;3.49;74.17
72380;SHT30;60354;47.798;12.472;2024-02-14T05:38:13;3.44;73.78
72380;SHT30;60354;47.798;12.472;2024-02-14T05:40:40;3.46;74.11
72380;SHT30;60354;47.798;12.472;2024-02-14T05:43:05;3.46;73.86
72380;SHT30;60354;47.798;12.472;2024-02-14T05:45:33;3.40;74.68
72380;SHT30;60354;47.798;12.472;2024-02-14T05:47:58;3.32;75.19
72380;SHT30;60354;47.798;12.472;2024-02-14T05:50:23;3.26;75.19
72380;SHT30;60354;47.798;12.472;2024-02-14T05:52:49;3.22;75.32
72380;SHT30;60354;47.798;12.472;2024-02-14T05:55:15;3.28;75.14
72380;SHT30;60354;47.798;12.472;2024-02-14T05:57:40;3.26;74.76
72380;SHT30;60354;47.798;12.472;2024-02-14T06:00:07;3.26;74.73
72380;SHT30;60354;47.798;12.472;2024-02-14T06:02:37;3.20;74.91
72380;SHT30;60354;47.798;12.472;2024-02-14T06:05:02;3.26;74.71
72380;SHT30;60354;47.798;12.472;2024-02-14T06:07:28;3.29;74.26
72380;SHT30;60354;47.798;12.472;2024-02-14T06:09:53;3.32;74.44
72380;SHT30;60354;47.798;12.472;2024-02-14T06:12:19;3.33;74.33
72380;SHT30;60354;47.798;12.472;2024-02-14T06:14:48;3.32;74.71
72380;SHT30;60354;47.798;12.472;2024-02-14T06:17:14;3.33;74.22
72380;SHT30;60354;47.798;12.472;2024-02-14T06:19:39;3.35;74.24
72380;SHT30;60354;47.798;12.472;2024-02-14T06:22:05;3.36;74.12
72380;SHT30;60354;47.798;12.472;2024-02-14T06:24:30;3.32;74.18
72380;SHT30;60354;47.798;12.472;2024-02-14T06:26:56;3.33;74.41
72380;SHT30;60354;47.798;12.472;2024-02-14T06:29:21;3.30;74.54
72380;SHT30;60354;47.798;12.472;2024-02-14T06:31:47;3.26;74.69
72380;SHT30;60354;47.798;12.472;2024-02-14T06:34:12;3.32;74.12
72380;SHT30;60354;47.798;12.472;2024-02-14T06:36:38;3.40;73.41
72380;SHT30;60354;47.798;12.472;2024-02-14T06:39:04;3.49;72.91
72380;SHT30;60354;47.798;12.472;2024-02-14T06:41:31;3.56;72.39
72380;SHT30;60354;47.798;12.472;2024-02-14T06:43:57;3.70;71.76
72380;SHT30;60354;47.798;12.472;2024-02-14T06:46:23;3.74;71.83
72380;SHT30;60354;47.798;12.472;2024-02-14T06:48:49;3.73;72.40
72380;SHT30;60354;47.798;12.472;2024-02-14T06:51:14;3.74;72.22
72380;SHT30;60354;47.798;12.472;2024-02-14T06:53:39;3.79;72.05
72380;SHT30;60354;47.798;12.472;2024-02-14T06:56:05;3.76;72.21
72380;SHT30;60354;47.798;12.472;2024-02-14T06:58:31;3.79;72.28
72380;SHT30;60354;47.798;12.472;2024-02-14T07:00:57;3.81;72.59
72380;SHT30;60354;47.798;12.472;2024-02-14T07:03:22;3.76;72.58
72380;SHT30;60354;47.798;12.472;2024-02-14T07:05:47;3.79;72.94
72380;SHT30;60354;47.798;12.472;2024-02-14T07:08:14;3.77;72.89
72380;SHT30;60354;47.798;12.472;2024-02-14T07:10:40;3.80;72.91
72380;SHT30;60354;47.798;12.472;2024-02-14T07:13:05;3.91;71.24
72380;SHT30;60354;47.798;12.472;2024-02-14T07:15:31;4.05;71.08
72380;SHT30;60354;47.798;12.472;2024-02-14T07:17:56;4.05;71.29
72380;SHT30;60354;47.798;12.472;2024-02-14T07:20:23;4.15;70.58
72380;SHT30;60354;47.798;12.472;2024-02-14T07:22:51;4.22;70.13
72380;SHT30;60354;47.798;12.472;2024-02-14T07:25:21;4.25;70.40
72380;SHT30;60354;47.798;12.472;2024-02-14T07:27:47;4.28;69.92
72380;SHT30;60354;47.798;12.472;2024-02-14T07:30:17;4.29;70.33
72380;SHT30;60354;47.798;12.472;2024-02-14T07:32:44;4.31;69.60
72380;SHT30;60354;47.798;12.472;2024-02-14T07:35:10;4.31;70.48
72380;SHT30;60354;47.798;12.472;2024-02-14T07:37:36;4.32;70.82
72380;SHT30;60354;47.798;12.472;2024-02-14T07:40:02;4.32;70.22
72380;SHT30;60354;47.798;12.472;2024-02-14T07:42:27;4.35;69.95
72380;SHT30;60354;47.798;12.472;2024-02-14T07:44:52;4.44;69.88
72380;SHT30;60354;47.798;12.472;2024-02-14T07:47:19;4.48;69.99
72380;SHT30;60354;47.798;12.472;2024-02-14T07:49:44;4.55;69.59
72380;SHT30;60354;47.798;12.472;2024-02-14T07:52:10;4.66;70.07
72380;SHT30;60354;47.798;12.472;2024-02-14T07:54:35;4.66;69.47
72380;SHT30;60354;47.798;12.472;2024-02-14T07:57:01;4.79;68.16
72380;SHT30;60354;47.798;12.472;2024-02-14T07:59:26;4.83;68.20
72380;SHT30;60354;47.798;12.472;2024-02-14T08:01:52;4.90;68.38
72380;SHT30;60354;47.798;12.472;2024-02-14T08:04:18;4.93;68.40
72380;SHT30;60354;47.798;12.472;2024-02-14T08:06:46;5.00;67.67
72380;SHT30;60354;47.798;12.472;2024-02-14T08:09:14;5.11;68.15
72380;SHT30;60354;47.798;12.472;2024-02-14T08:11:39;5.16;67.78
72380;SHT30;60354;47.798;12.472;2024-02-14T08:14:05;5.44;66.91
72380;SHT30;60354;47.798;12.472;2024-02-14T08:16:30;5.42;65.91
72380;SHT30;60354;47.798;12.472;2024-02-14T08:18:56;5.52;65.61
72380;SHT30;60354;47.798;12.472;2024-02-14T08:21:25;5.59;66.07
72380;SHT30;60354;47.798;12.472;2024-02-14T08:23:52;5.92;65.84
72380;SHT30;60354;47.798;12.472;2024-02-14T08:26:18;5.79;65.10
72380;SHT30;60354;47.798;12.472;2024-02-14T08:28:43;5.75;65.13
72380;SHT30;60354;47.798;12.472;2024-02-14T08:31:12;5.76;65.76
72380;SHT30;60354;47.798;12.472;2024-02-14T08:33:38;5.73;65.73
72380;SHT30;60354;47.798;12.472;2024-02-14T08:36:04;5.66;65.92
72380;SHT30;60354;47.798;12.472;2024-02-14T08:38:30;5.73;65.84
72380;SHT30;60354;47.798;12.472;2024-02-14T08:40:55;5.81;65.99
72380;SHT30;60354;47.798;12.472;2024-02-14T08:43:22;5.76;66.65
72380;SHT30;60354;47.798;12.472;2024-02-14T08:45:49;5.72;66.02
72380;SHT30;60354;47.798;12.472;2024-02-14T08:48:17;5.73;66.17
72380;SHT30;60354;47.798;12.472;2024-02-14T08:50:43;5.75;65.50
72380;SHT30;60354;47.798;12.472;2024-02-14T08:53:08;5.93;65.77
72380;SHT30;60354;47.798;12.472;2024-02-14T08:55:35;6.03;65.29
72380;SHT30;60354;47.798;12.472;2024-02-14T08:58:01;6.27;64.31
72380;SHT30;60354;47.798;12.472;2024-02-14T09:00:27;6.23;64.01
72380;SHT30;60354;47.798;12.472;2024-02-14T09:02:52;6.12;64.45
72380;SHT30;60354;47.798;12.472;2024-02-14T09:05:18;6.10;64.41
72380;SHT30;60354;47.798;12.472;2024-02-14T09:07:44;6.06;64.77
72380;SHT30;60354;47.798;12.472;2024-02-14T09:10:10;6.03;64.54
72380;SHT30;60354;47.798;12.472;2024-02-14T09:12:38;6.05;64.67
72380;SHT30;60354;47.798;12.472;2024-02-14T09:15:05;6.22;64.11
72380;SHT30;60354;47.798;12.472;2024-02-14T09:17:30;6.33;63.30
72380;SHT30;60354;47.798;12.472;2024-02-14T09:19:56;6.43;62.83
72380;SHT30;60354;47.798;12.472;2024-02-14T09:22:22;6.41;62.83
72380;SHT30;60354;47.798;12.472;2024-02-14T09:24:48;6.48;62.56
72380;SHT30;60354;47.798;12.472;2024-02-14T09:27:14;6.54;62.68
72380;SHT30;60354;47.798;12.472;2024-02-14T09:29:40;6.70;62.47
72380;SHT30;60354;47.798;12.472;2024-02-14T09:32:05;6.71;61.88
72380;SHT30;60354;47.798;12.472;2024-02-14T09:34:31;6.75;62.44
72380;SHT30;60354;47.798;12.472;2024-02-14T09:36:56;6.75;61.73
72380;SHT30;60354;47.798;12.472;2024-02-14T09:39:24;6.75;61.22
72380;SHT30;60354;47.798;12.472;2024-02-14T09:41:54;6.80;61.46
72380;SHT30;60354;47.798;12.472;2024-02-14T09:44:27;6.82;61.31
72380;SHT30;60354;47.798;12.472;2024-02-14T09:46:54;6.89;62.59
72380;SHT30;60354;47.798;12.472;2024-02-14T09:49:21;6.77;61.81
72380;SHT30;60354;47.798;12.472;2024-02-14T09:51:48;6.78;61.41
72380;SHT30;60354;47.798;12.472;2024-02-14T09:54:17;6.77;61.12
72380;SHT30;60354;47.798;12.472;2024-02-14T09:56:48;6.80;61.34
72380;SHT30;60354;47.798;12.472;2024-02-14T09:59:16;6.78;62.37
72380;SHT30;60354;47.798;12.472;2024-02-14T10:01:42;6.81;62.95
72380;SHT30;60354;47.798;12.472;2024-02-14T10:04:08;6.87;62.53
72380;SHT30;60354;47.798;12.472;2024-02-14T10:06:33;6.91;61.96
72380;SHT30;60354;47.798;12.472;2024-02-14T10:08:59;6.98;62.67
72380;SHT30;60354;47.798;12.472;2024-02-14T10:11:24;7.22;60.19
72380;SHT30;60354;47.798;12.472;2024-02-14T10:13:52;7.37;60.33
72380;SHT30;60354;47.798;12.472;2024-02-14T10:16:22;7.42;61.12
72380;SHT30;60354;47.798;12.472;2024-02-14T10:18:48;7.46;61.12
72380;SHT30;60354;47.798;12.472;2024-02-14T10:21:16;7.36;62.33
72380;SHT30;60354;47.798;12.472;2024-02-14T10:23:43;7.26;62.13
72380;SHT30;60354;47.798;12.472;2024-02-14T10:26:10;7.37;60.89
72380;SHT30;60354;47.798;12.472;2024-02-14T10:28:36;7.30;62.01
72380;SHT30;60354;47.798;12.472;2024-02-14T10:31:02;7.27;63.52
72380;SHT30;60354;47.798;12.472;2024-02-14T10:33:28;7.24;62.36
72380;SHT30;60354;47.798;12.472;2024-02-14T10:35:54;7.27;62.53
72380;SHT30;60354;47.798;12.472;2024-02-14T10:38:22;7.36;63.25
72380;SHT30;60354;47.798;12.472;2024-02-14T10:40:48;7.42;63.63
72380;SHT30;60354;47.798;12.472;2024-02-14T10:43:15;7.40;64.25
72380;SHT30;60354;47.798;12.472;2024-02-14T10:45:40;7.43;65.92
72380;SHT30;60354;47.798;12.472;2024-02-14T10:48:12;7.43;68.80
72380;SHT30;60354;47.798;12.472;2024-02-14T10:50:41;7.44;68.42
72380;SHT30;60354;47.798;12.472;2024-02-14T10:53:14;7.33;67.57
72380;SHT30;60354;47.798;12.472;2024-02-14T10:55:47;7.40;67.55
72380;SHT30;60354;47.798;12.472;2024-02-14T10:58:14;7.52;66.56
72380;SHT30;60354;47.798;12.472;2024-02-14T11:00:41;7.59;66.51
72380;SHT30;60354;47.798;12.472;2024-02-14T11:03:07;7.52;66.64
72380;SHT30;60354;47.798;12.472;2024-02-14T11:05:45;7.53;65.45
72380;SHT30;60354;47.798;12.472;2024-02-14T11:08:21;7.56;64.79
72380;SHT30;60354;47.798;12.472;2024-02-14T11:10:55;7.69;65.22
72380;SHT30;60354;47.798;12.472;2024-02-14T11:13:30;7.77;64.86
72380;SHT30;60354;47.798;12.472;2024-02-14T11:16:02;7.77;63.26
72380;SHT30;60354;47.798;12.472;2024-02-14T11:18:30;7.81;63.79
72380;SHT30;60354;47.798;12.472;2024-02-14T11:20:56;7.80;64.42
72380;SHT30;60354;47.798;12.472;2024-02-14T11:23:23;7.75;64.81
72380;SHT30;60354;47.798;12.472;2024-02-14T11:25:49;7.63;67.48
72380;SHT30;60354;47.798;12.472;2024-02-14T11:28:19;7.49;68.09
72380;SHT30;60354;47.798;12.472;2024-02-14T11:30:49;7.52;68.75
72380;SHT30;60354;47.798;12.472;2024-02-14T11:33:22;7.50;68.36
72380;SHT30;60354;47.798;12.472;2024-02-14T11:35:50;7.56;69.33
72380;SHT30;60354;47.798;12.472;2024-02-14T11:38:23;7.62;70.49
72380;SHT30;60354;47.798;12.472;2024-02-14T11:40:51;7.77;70.48
72380;SHT30;60354;47.798;12.472;2024-02-14T11:43:19;7.84;70.14
72380;SHT30;60354;47.798;12.472;2024-02-14T11:45:45;7.88;69.33
72380;SHT30;60354;47.798;12.472;2024-02-14T11:48:13;7.97;69.25
72380;SHT30;60354;47.798;12.472;2024-02-14T11:50:42;8.09;69.32
72380;SHT30;60354;47.798;12.472;2024-02-14T11:53:10;8.21;68.87
72380;SHT30;60354;47.798;12.472;2024-02-14T11:55:37;8.20;67.30
72380;SHT30;60354;47.798;12.472;2024-02-14T11:58:09;8.20;67.06
72380;SHT30;60354;47.798;12.472;2024-02-14T12:00:48;8.22;66.56
72380;SHT30;60354;47.798;12.472;2024-02-14T12:03:18;8.25;65.47
72380;SHT30;60354;47.798;12.472;2024-02-14T12:05:46;8.29;65.13
72380;SHT30;60354;47.798;12.472;2024-02-14T12:08:12;8.42;65.65
72380;SHT30;60354;47.798;12.472;2024-02-14T12:10:38;8.45;66.29
72380;SHT30;60354;47.798;12.472;2024-02-14T12:13:11;8.52;65.14
72380;SHT30;60354;47.798;12.472;2024-02-14T12:15:40;8.50;65.28
72380;SHT30;60354;47.798;12.472;2024-02-14T12:18:07;8.43;65.24
72380;SHT30;60354;47.798;12.472;2024-02-14T12:20:33;8.38;66.49
72380;SHT30;60354;47.798;12.472;2024-02-14T12:22:59;8.42;66.17
72380;SHT30;60354;47.798;12.472;2024-02-14T12:25:25;8.48;65.74
72380;SHT30;60354;47.798;12.472;2024-02-14T12:27:52;8.57;65.26
72380;SHT30;60354;47.798;12.472;2024-02-14T12:30:18;8.64;64.46
72380;SHT30;60354;47.798;12.472;2024-02-14T12:32:58;8.69;64.67
72380;SHT30;60354;47.798;12.472;2024-02-14T12:35:23;8.69;63.90
72380;SHT30;60354;47.798;12.472;2024-02-14T12:37:49;8.69;64.35
72380;SHT30;60354;47.798;12.472;2024-02-14T12:40:14;8.70;64.12
72380;SHT30;60354;47.798;12.472;2024-02-14T12:42:40;8.76;64.53
72380;SHT30;60354;47.798;12.472;2024-02-14T12:45:05;8.73;64.57
72380;SHT30;60354;47.798;12.472;2024-02-14T12:47:32;8.83;64.34
72380;SHT30;60354;47.798;12.472;2024-02-14T12:50:00;8.84;64.68
72380;SHT30;60354;47.798;12.472;2024-02-14T12:52:26;8.91;64.56
72380;SHT30;60354;47.798;12.472;2024-02-14T12:54:51;8.96;64.93
72380;SHT30;60354;47.798;12.472;2024-02-14T12:57:17;9.01;65.00
72380;SHT30;60354;47.798;12.472;2024-02-14T12:59:43;9.08;64.29
72380;SHT30;60354;47.798;12.472;2024-02-14T13:02:10;9.10;64.61
72380;SHT30;60354;47.798;12.472;2024-02-14T13:04:36;9.11;63.98
72380;SHT30;60354;47.798;12.472;2024-02-14T13:07:01;9.20;63.20
72380;SHT30;60354;47.798;12.472;2024-02-14T13:09:27;9.18;62.99
72380;SHT30;60354;47.798;12.472;2024-02-14T13:11:53;9.18;63.26
72380;SHT30;60354;47.798;12.472;2024-02-14T13:14:18;9.18;63.20
72380;SHT30;60354;47.798;12.472;2024-02-14T13:16:44;9.20;62.62
72380;SHT30;60354;47.798;12.472;2024-02-14T13:19:09;9.25;63.07
72380;SHT30;60354;47.798;12.472;2024-02-14T13:21:35;9.31;62.04
72380;SHT30;60354;47.798;12.472;2024-02-14T13:24:00;9.27;62.31
72380;SHT30;60354;47.798;12.472;2024-02-14T13:26:25;9.32;62.89
72380;SHT30;60354;47.798;12.472;2024-02-14T13:28:53;9.32;62.15
72380;SHT30;60354;47.798;12.472;2024-02-14T13:31:19;9.35;62.64
72380;SHT30;60354;47.798;12.472;2024-02-14T13:33:45;9.39;62.91
72380;SHT30;60354;47.798;12.472;2024-02-14T13:36:10;9.41;62.30
72380;SHT30;60354;47.798;12.472;2024-02-14T13:38:35;9.46;62.40
72380;SHT30;60354;47.798;12.472;2024-02-14T13:41:01;9.51;61.76
72380;SHT30;60354;47.798;12.472;2024-02-14T13:43:26;9.54;62.45
72380;SHT30;60354;47.798;12.472;2024-02-14T13:45:52;9.61;63.61
72380;SHT30;60354;47.798;12.472;2024-02-14T13:48:17;9.68;64.09
72380;SHT30;60354;47.798;12.472;2024-02-14T13:50:43;9.79;62.62
72380;SHT30;60354;47.798;12.472;2024-02-14T13:53:09;9.92;62.22
72380;SHT30;60354;47.798;12.472;2024-02-14T13:55:34;10.09;61.03
72380;SHT30;60354;47.798;12.472;2024-02-14T13:58:00;10.20;61.60
72380;SHT30;60354;47.798;12.472;2024-02-14T14:00:26;10.21;61.36
72380;SHT30;60354;47.798;12.472;2024-02-14T14:02:51;10.20;60.73
72380;SHT30;60354;47.798;12.472;2024-02-14T14:05:17;10.44;61.24
72380;SHT30;60354;47.798;12.472;2024-02-14T14:07:42;10.60;64.69
72380;SHT30;60354;47.798;12.472;2024-02-14T14:10:08;10.60;62.00
72380;SHT30;60354;47.798;12.472;2024-02-14T14:12:35;10.58;62.13
72380;SHT30;60354;47.798;12.472;2024-02-14T14:15:00;10.57;62.43
72380;SHT30;60354;47.798;12.472;2024-02-14T14:17:26;10.51;62.12
72380;SHT30;60354;47.798;12.472;2024-02-14T14:19:53;10.51;61.97
72380;SHT30;60354;47.798;12.472;2024-02-14T14:22:18;10.47;60.74
72380;SHT30;60354;47.798;12.472;2024-02-14T14:24:44;10.38;61.00
72380;SHT30;60354;47.798;12.472;2024-02-14T14:27:09;10.32;61.03
72380;SHT30;60354;47.798;12.472;2024-02-14T14:29:39;10.33;61.05
72380;SHT30;60354;47.798;12.472;2024-02-14T14:32:10;10.37;63.89
72380;SHT30;60354;47.798;12.472;2024-02-14T14:34:35;10.33;67.43
72380;SHT30;60354;47.798;12.472;2024-02-14T14:37:02;10.27;68.47
72380;SHT30;60354;47.798;12.472;2024-02-14T14:39:28;10.27;67.63
72380;SHT30;60354;47.798;12.472;2024-02-14T14:41:54;10.21;68.71
72380;SHT30;60354;47.798;12.472;2024-02-14T14:44:24;10.29;69.18
72380;SHT30;60354;47.798;12.472;2024-02-14T14:46:49;10.24;69.80
72380;SHT30;60354;47.798;12.472;2024-02-14T14:49:16;10.21;66.55
72380;SHT30;60354;47.798;12.472;2024-02-14T14:51:42;10.17;66.92
72380;SHT30;60354;47.798;12.472;2024-02-14T14:54:08;10.21;66.89
72380;SHT30;60354;47.798;12.472;2024-02-14T14:56:34;10.16;65.97
72380;SHT30;60354;47.798;12.472;2024-02-14T14:58:59;10.12;65.66
72380;SHT30;60354;47.798;12.472;2024-02-14T15:01:29;10.06;67.63
72380;SHT30;60354;47.798;12.472;2024-02-14T15:03:55;10.03;67.95
72380;SHT30;60354;47.798;12.472;2024-02-14T15:06:20;10.03;67.87
72380;SHT30;60354;47.798;12.472;2024-02-14T15:08:46;10.06;68.16
72380;SHT30;60354;47.798;12.472;2024-02-14T15:11:13;10.07;66.56
72380;SHT30;60354;47.798;12.472;2024-02-14T15:13:44;10.07;66.94
72380;SHT30;60354;47.798;12.472;2024-02-14T15:16:11;10.09;66.83
72380;SHT30;60354;47.798;12.472;2024-02-14T15:18:38;10.07;66.93
72380;SHT30;60354;47.798;12.472;2024-02-14T15:21:04;10.06;66.71
72380;SHT30;60354;47.798;12.472;2024-02-14T15:23:29;10.03;67.79
72380;SHT30;60354;47.798;12.472;2024-02-14T15:25:55;9.99;66.51